sensor_id;sensor_type;location;lat;lon;timestamp;P1;durP1;ratioP1;P2;durP2;ratioP2
22675;SDS011;12521;43.310;21.876;2023-06-14T00:02:28;7.0;;;6.0;;
22675;SDS011;12521;43.310;21.876;2023-06-14T00:07:05;7.0;;;6.0;;
22675;SDS011;12521;43.310;21.876;2023-06-14T00:11:43;8.0;;;6.0;;
22675;SDS011;12521;43.310;21.876;2023-06-14T00:16:20;8.0;;;6.0;;
22675;SDS011;12521;43.310;21.876;2023-06-14T00:20:57;8.0;;;5.0;;
22675;SDS011;12521;43.310;21.876;2023-06-14T00:25:34;8.0;;;5.0;;
22675;SDS011;12521;43.310;21.876;2023-06-14T00:30:11;8.0;;;6.0;;
22675;SDS011;12521;43.310;21.876;2023-06-14T00:34:49;8.0;;;6.0;;
22675;SDS011;12521;43.310;21.876;2023-06-14T00:39:26;8.0;;;6.0;;
22675;SDS011;12521;43.310;21.876;2023-06-14T00:44:04;8.0;;;6.0;;
22675;SDS011;12521;43.310;21.876;2023-06-14T00:48:41;8.0;;;6.0;;
22675;SDS011;12521;43.310;21.876;2023-06-14T00:53:19;8.0;;;6.0;;
22675;SDS011;12521;43.310;21.876;2023-06-14T00:57:56;8.0;;;7.0;;
22675;SDS011;12521;43.310;21.876;2023-06-14T01:02:35;8.0;;;7.0;;
22675;SDS011;12521;43.310;21.876;2023-06-14T01:07:25;8.0;;;7.0;;
22675;SDS011;12521;43.310;21.876;2023-06-14T01:12:59;8.0;;;7.0;;
22675;SDS011;12521;43.310;21.876;2023-06-14T01:17:59;8.0;;;7.0;;
22675;SDS011;12521;43.310;21.876;2023-06-14T01:22:50;8.0;;;7.0;;
22675;SDS011;12521;43.310;21.876;2023-06-14T01:27:29;8.0;;;6.0;;
22675;SDS011;12521;43.310;21.876;2023-06-14T01:32:08;8.0;;;6.0;;
22675;SDS011;12521;43.310;21.876;2023-06-14T01:36:47;8.0;;;6.0;;
22675;SDS011;12521;43.310;21.876;2023-06-14T01:41:31;8.0;;;6.0;;
22675;SDS011;12521;43.310;21.876;2023-06-14T01:46:14;8.0;;;6.0;;
22675;SDS011;12521;43.310;21.876;2023-06-14T01:50:53;8.0;;;6.0;;
22675;SDS011;12521;43.310;21.876;2023-06-14T01:55:30;8.0;;;6.0;;
22675;SDS011;12521;43.310;21.876;2023-06-14T02:00:08;7.0;;;5.0;;
22675;SDS011;12521;43.310;21.876;2023-06-14T02:04:49;7.0;;;5.0;;
22675;SDS011;12521;43.310;21.876;2023-06-14T02:09:27;8.0;;;6.0;;
22675;SDS011;12521;43.310;21.876;2023-06-14T02:14:03;8.0;;;6.0;;
22675;SDS011;12521;43.310;21.876;2023-06-14T02:18:40;9.0;;;7.0;;
22675;SDS011;12521;43.310;21.876;2023-06-14T02:23:17;9.0;;;7.0;;
22675;SDS011;12521;43.310;21.876;2023-06-14T02:27:54;8.0;;;6.0;;
22675;SDS011;12521;43.310;21.876;2023-06-14T02:32:31;8.0;;;6.0;;
22675;SDS011;12521;43.310;21.876;2023-06-14T02:37:07;8.0;;;6.0;;
22675;SDS011;12521;43.310;21.876;2023-06-14T02:41:44;7.0;;;6.0;;
22675;SDS011;12521;43.310;21.876;2023-06-14T02:46:21;7.0;;;6.0;;
22675;SDS011;12521;43.310;21.876;2023-06-14T02:50:57;8.0;;;6.0;;
22675;SDS011;12521;43.310;21.876;2023-06-14T02:55:34;8.0;;;6.0;;
22675;SDS011;12521;43.310;21.876;2023-06-14T03:00:11;8.0;;;7.0;;
22675;SDS011;12521;43.310;21.876;2023-06-14T03:04:50;8.0;;;7.0;;
22675;SDS011;12521;43.310;21.876;2023-06-14T03:09:26;8.0;;;6.0;;
22675;SDS011;12521;43.310;21.876;2023-06-14T03:14:02;8.0;;;6.0;;
22675;SDS011;12521;43.310;21.876;2023-06-14T03:18:39;8.0;;;6.0;;
22675;SDS011;12521;43.310;21.876;2023-06-14T03:23:15;8.0;;;6.0;;
22675;SDS011;12521;43.310;21.876;2023-06-14T03:27:51;8.0;;;6.0;;
22675;SDS011;12521;43.310;21.876;2023-06-14T03:32:28;8.0;;;6.0;;
22675;SDS011;12521;43.310;21.876;2023-06-14T03:37:04;8.0;;;6.0;;
22675;SDS011;12521;43.310;21.876;2023-06-14T03:41:41;9.0;;;6.0;;
22675;SDS011;12521;43.310;21.876;2023-06-14T03:46:18;9.0;;;6.0;;
22675;SDS011;12521;43.310;21.876;2023-06-14T03:50:54;9.0;;;6.0;;
22675;SDS011;12521;43.310;21.876;2023-06-14T03:55:31;9.0;;;6.0;;
22675;SDS011;12521;43.310;21.876;2023-06-14T04:00:10;9.0;;;6.0;;
22675;SDS011;12521;43.310;21.876;2023-06-14T04:04:50;9.0;;;6.0;;
22675;SDS011;12521;43.310;21.876;2023-06-14T04:09:26;8.0;;;6.0;;
22675;SDS011;12521;43.310;21.876;2023-06-14T04:14:03;8.0;;;6.0;;
22675;SDS011;12521;43.310;21.876;2023-06-14T04:18:41;7.0;;;6.0;;
22675;SDS011;12521;43.310;21.876;2023-06-14T04:23:18;7.0;;;6.0;;
22675;SDS011;12521;43.310;21.876;2023-06-14T04:27:55;8.0;;;6.0;;
22675;SDS011;12521;43.310;21.876;2023-06-14T04:32:32;8.0;;;6.0;;
22675;SDS011;12521;43.310;21.876;2023-06-14T04:37:09;8.0;;;6.0;;
22675;SDS011;12521;43.310;21.876;2023-06-14T04:41:45;8.0;;;5.0;;
22675;SDS011;12521;43.310;21.876;2023-06-14T04:46:22;8.0;;;5.0;;
22675;SDS011;12521;43.310;21.876;2023-06-14T04:50:58;7.0;;;5.0;;
22675;SDS011;12521;43.310;21.876;2023-06-14T04:55:35;7.0;;;5.0;;
22675;SDS011;12521;43.310;21.876;2023-06-14T05:00:12;6.0;;;5.0;;
22675;SDS011;12521;43.310;21.876;2023-06-14T05:04:51;6.0;;;5.0;;
22675;SDS011;12521;43.310;21.876;2023-06-14T05:09:27;7.0;;;6.0;;
22675;SDS011;12521;43.310;21.876;2023-06-14T05:14:04;7.0;;;6.0;;
22675;SDS011;12521;43.310;21.876;2023-06-14T05:18:41;8.0;;;6.0;;
22675;SDS011;12521;43.310;21.876;2023-06-14T05:23:17;8.0;;;6.0;;
22675;SDS011;12521;43.310;21.876;2023-06-14T05:27:54;8.0;;;6.0;;
22675;SDS011;12521;43.310;21.876;2023-06-14T05:32:31;8.0;;;6.0;;
22675;SDS011;12521;43.310;21.876;2023-06-14T05:37:07;8.0;;;6.0;;
22675;SDS011;12521;43.310;21.876;2023-06-14T05:41:44;8.0;;;5.0;;
22675;SDS011;12521;43.310;21.876;2023-06-14T05:46:21;8.0;;;5.0;;
22675;SDS011;12521;43.310;21.876;2023-06-14T05:50:59;8.0;;;6.0;;
22675;SDS011;12521;43.310;21.876;2023-06-14T05:55:35;8.0;;;6.0;;
22675;SDS011;12521;43.310;21.876;2023-06-14T06:00:13;8.0;;;6.0;;
22675;SDS011;12521;43.310;21.876;2023-06-14T06:04:52;8.0;;;6.0;;
22675;SDS011;12521;43.310;21.876;2023-06-14T06:09:29;8.0;;;6.0;;
22675;SDS011;12521;43.310;21.876;2023-06-14T06:14:06;8.0;;;6.0;;
22675;SDS011;12521;43.310;21.876;2023-06-14T06:18:43;9.0;;;5.0;;
22675;SDS011;12521;43.310;21.876;2023-06-14T06:23:19;9.0;;;5.0;;
22675;SDS011;12521;43.310;21.876;2023-06-14T06:27:56;8.0;;;6.0;;
22675;SDS011;12521;43.310;21.876;2023-06-14T06:32:33;8.0;;;6.0;;
22675;SDS011;12521;43.310;21.876;2023-06-14T06:37:10;8.0;;;6.0;;
22675;SDS011;12521;43.310;21.876;2023-06-14T06:41:49;8.0;;;6.0;;
22675;SDS011;12521;43.310;21.876;2023-06-14T06:46:25;8.0;;;6.0;;
22675;SDS011;12521;43.310;21.876;2023-06-14T06:51:02;8.0;;;6.0;;
22675;SDS011;12521;43.310;21.876;2023-06-14T06:55:39;8.0;;;6.0;;
22675;SDS011;12521;43.310;21.876;2023-06-14T07:00:17;8.0;;;6.0;;
22675;SDS011;12521;43.310;21.876;2023-06-14T07:04:56;8.0;;;6.0;;
22675;SDS011;12521;43.310;21.876;2023-06-14T07:09:33;8.0;;;6.0;;
22675;SDS011;12521;43.310;21.876;2023-06-14T07:14:09;8.0;;;6.0;;
22675;SDS011;12521;43.310;21.876;2023-06-14T07:18:47;7.0;;;6.0;;
22675;SDS011;12521;43.310;21.876;2023-06-14T07:23:23;7.0;;;6.0;;
22675;SDS011;12521;43.310;21.876;2023-06-14T07:28:00;10.0;;;8.0;;
22675;SDS011;12521;43.310;21.876;2023-06-14T07:32:36;10.0;;;8.0;;
22675;SDS011;12521;43.310;21.876;2023-06-14T07:37:14;10.0;;;8.0;;
22675;SDS011;12521;43.310;21.876;2023-06-14T07:41:51;12.0;;;10.0;;
22675;SDS011;12521;43.310;21.876;2023-06-14T07:46:27;12.0;;;10.0;;
22675;SDS011;12521;43.310;21.876;2023-06-14T07:51:04;11.0;;;9.0;;
22675;SDS011;12521;43.310;21.876;2023-06-14T07:55:41;11.0;;;9.0;;
22675;SDS011;12521;43.310;21.876;2023-06-14T08:00:19;10.0;;;8.0;;
22675;SDS011;12521;43.310;21.876;2023-06-14T08:04:57;10.0;;;8.0;;
22675;SDS011;12521;43.310;21.876;2023-06-14T08:09:35;10.0;;;8.0;;
22675;SDS011;12521;43.310;21.876;2023-06-14T08:14:12;10.0;;;8.0;;
22675;SDS011;12521;43.310;21.876;2023-06-14T08:18:48;9.0;;;7.0;;
22675;SDS011;12521;43.310;21.876;2023-06-14T08:23:25;9.0;;;7.0;;
22675;SDS011;12521;43.310;21.876;2023-06-14T08:28:01;9.0;;;6.0;;
22675;SDS011;12521;43.310;21.876;2023-06-14T08:32:38;9.0;;;6.0;;
22675;SDS011;12521;43.310;21.876;2023-06-14T08:37:14;9.0;;;6.0;;
22675;SDS011;12521;43.310;21.876;2023-06-14T08:41:52;9.0;;;6.0;;
22675;SDS011;12521;43.310;21.876;2023-06-14T08:46:33;9.0;;;6.0;;
22675;SDS011;12521;43.310;21.876;2023-06-14T08:51:13;8.0;;;6.0;;
22675;SDS011;12521;43.310;21.876;2023-06-14T08:55:55;8.0;;;6.0;;
22675;SDS011;12521;43.310;21.876;2023-06-14T09:00:31;8.0;;;5.0;;
22675;SDS011;12521;43.310;21.876;2023-06-14T09:05:09;8.0;;;5.0;;
22675;SDS011;12521;43.310;21.876;2023-06-14T09:09:47;8.0;;;6.0;;
22675;SDS011;12521;43.310;21.876;2023-06-14T09:14:24;8.0;;;6.0;;
22675;SDS011;12521;43.310;21.876;2023-06-14T09:19:01;7.0;;;6.0;;
22675;SDS011;12521;43.310;21.876;2023-06-14T09:23:38;7.0;;;6.0;;
22675;SDS011;12521;43.310;21.876;2023-06-14T09:28:27;6.0;;;6.0;;
22675;SDS011;12521;43.310;21.876;2023-06-14T09:33:04;6.0;;;6.0;;
22675;SDS011;12521;43.310;21.876;2023-06-14T09:37:41;6.0;;;6.0;;
22675;SDS011;12521;43.310;21.876;2023-06-14T09:42:19;6.0;;;5.0;;
22675;SDS011;12521;43.310;21.876;2023-06-14T09:46:56;6.0;;;5.0;;
22675;SDS011;12521;43.310;21.876;2023-06-14T09:51:34;6.0;;;6.0;;
22675;SDS011;12521;43.310;21.876;2023-06-14T09:56:28;6.0;;;6.0;;
22675;SDS011;12521;43.310;21.876;2023-06-14T10:01:18;7.0;;;6.0;;
22675;SDS011;12521;43.310;21.876;2023-06-14T10:06:03;7.0;;;6.0;;
22675;SDS011;12521;43.310;21.876;2023-06-14T10:10:46;6.0;;;6.0;;
22675;SDS011;12521;43.310;21.876;2023-06-14T10:15:35;6.0;;;6.0;;
22675;SDS011;12521;43.310;21.876;2023-06-14T10:20:53;6.0;;;5.0;;
22675;SDS011;12521;43.310;21.876;2023-06-14T10:26:01;6.0;;;5.0;;
22675;SDS011;12521;43.310;21.876;2023-06-14T10:30:38;6.0;;;5.0;;
22675;SDS011;12521;43.310;21.876;2023-06-14T10:35:16;6.0;;;5.0;;
22675;SDS011;12521;43.310;21.876;2023-06-14T10:39:53;7.0;;;5.0;;
22675;SDS011;12521;43.310;21.876;2023-06-14T10:44:33;7.0;;;5.0;;
22675;SDS011;12521;43.310;21.876;2023-06-14T10:49:38;6.0;;;5.0;;
22675;SDS011;12521;43.310;21.876;2023-06-14T10:54:24;6.0;;;5.0;;
22675;SDS011;12521;43.310;21.876;2023-06-14T10:59:03;6.0;;;5.0;;
22675;SDS011;12521;43.310;21.876;2023-06-14T11:03:51;6.0;;;5.0;;
22675;SDS011;12521;43.310;21.876;2023-06-14T11:09:54;6.0;;;5.0;;
22675;SDS011;12521;43.310;21.876;2023-06-14T11:15:13;6.0;;;5.0;;
22675;SDS011;12521;43.310;21.876;2023-06-14T11:19:50;7.0;;;5.0;;
22675;SDS011;12521;43.310;21.876;2023-06-14T11:24:45;7.0;;;5.0;;
22675;SDS011;12521;43.310;21.876;2023-06-14T11:29:22;6.0;;;5.0;;
22675;SDS011;12521;43.310;21.876;2023-06-14T11:34:00;6.0;;;5.0;;
22675;SDS011;12521;43.310;21.876;2023-06-14T11:38:37;6.0;;;5.0;;
22675;SDS011;12521;43.310;21.876;2023-06-14T11:43:13;6.0;;;5.0;;
22675;SDS011;12521;43.310;21.876;2023-06-14T11:47:50;6.0;;;5.0;;
22675;SDS011;12521;43.310;21.876;2023-06-14T11:52:27;6.0;;;4.0;;
22675;SDS011;12521;43.310;21.876;2023-06-14T11:57:06;6.0;;;4.0;;
22675;SDS011;12521;43.310;21.876;2023-06-14T12:01:43;5.0;;;4.0;;
22675;SDS011;12521;43.310;21.876;2023-06-14T12:06:27;5.0;;;4.0;;
22675;SDS011;12521;43.310;21.876;2023-06-14T12:11:11;4.0;;;4.0;;
22675;SDS011;12521;43.310;21.876;2023-06-14T12:15:54;4.0;;;4.0;;
22675;SDS011;12521;43.310;21.876;2023-06-14T12:20:32;4.0;;;4.0;;
22675;SDS011;12521;43.310;21.876;2023-06-14T12:25:10;4.0;;;4.0;;
22675;SDS011;12521;43.310;21.876;2023-06-14T12:30:09;5.0;;;4.0;;
22675;SDS011;12521;43.310;21.876;2023-06-14T12:34:48;5.0;;;4.0;;
22675;SDS011;12521;43.310;21.876;2023-06-14T12:39:25;6.0;;;4.0;;
22675;SDS011;12521;43.310;21.876;2023-06-14T12:44:01;6.0;;;4.0;;
22675;SDS011;12521;43.310;21.876;2023-06-14T12:48:39;5.0;;;4.0;;
22675;SDS011;12521;43.310;21.876;2023-06-14T12:53:15;5.0;;;4.0;;
22675;SDS011;12521;43.310;21.876;2023-06-14T12:57:52;5.0;;;4.0;;
22675;SDS011;12521;43.310;21.876;2023-06-14T13:02:29;4.0;;;4.0;;
22675;SDS011;12521;43.310;21.876;2023-06-14T13:07:05;4.0;;;4.0;;
22675;SDS011;12521;43.310;21.876;2023-06-14T13:11:42;6.0;;;4.0;;
22675;SDS011;12521;43.310;21.876;2023-06-14T13:16:19;6.0;;;4.0;;
22675;SDS011;12521;43.310;21.876;2023-06-14T13:20:55;7.0;;;5.0;;
22675;SDS011;12521;43.310;21.876;2023-06-14T13:25:33;7.0;;;5.0;;
22675;SDS011;12521;43.310;21.876;2023-06-14T13:30:11;6.0;;;4.0;;
22675;SDS011;12521;43.310;21.876;2023-06-14T13:34:49;6.0;;;4.0;;
22675;SDS011;12521;43.310;21.876;2023-06-14T13:39:26;5.0;;;4.0;;
22675;SDS011;12521;43.310;21.876;2023-06-14T13:44:03;5.0;;;4.0;;
22675;SDS011;12521;43.310;21.876;2023-06-14T13:48:40;6.0;;;5.0;;
22675;SDS011;12521;43.310;21.876;2023-06-14T13:53:16;6.0;;;5.0;;
22675;SDS011;12521;43.310;21.876;2023-06-14T13:57:52;6.0;;;5.0;;
22675;SDS011;12521;43.310;21.876;2023-06-14T14:02:29;8.0;;;6.0;;
22675;SDS011;12521;43.310;21.876;2023-06-14T14:07:06;8.0;;;6.0;;
22675;SDS011;12521;43.310;21.876;2023-06-14T14:11:44;7.0;;;6.0;;
22675;SDS011;12521;43.310;21.876;2023-06-14T14:16:20;7.0;;;6.0;;
22675;SDS011;12521;43.310;21.876;2023-06-14T14:20:57;6.0;;;5.0;;
22675;SDS011;12521;43.310;21.876;2023-06-14T14:25:34;6.0;;;5.0;;
22675;SDS011;12521;43.310;21.876;2023-06-14T14:30:12;7.0;;;6.0;;
22675;SDS011;12521;43.310;21.876;2023-06-14T14:34:50;7.0;;;6.0;;
22675;SDS011;12521;43.310;21.876;2023-06-14T14:39:27;8.0;;;7.0;;
22675;SDS011;12521;43.310;21.876;2023-06-14T14:44:05;8.0;;;7.0;;
22675;SDS011;12521;43.310;21.876;2023-06-14T14:48:42;6.0;;;5.0;;
22675;SDS011;12521;43.310;21.876;2023-06-14T14:53:19;6.0;;;5.0;;
22675;SDS011;12521;43.310;21.876;2023-06-14T14:57:55;6.0;;;5.0;;
22675;SDS011;12521;43.310;21.876;2023-06-14T15:02:32;4.0;;;3.0;;
22675;SDS011;12521;43.310;21.876;2023-06-14T15:07:09;4.0;;;3.0;;
22675;SDS011;12521;43.310;21.876;2023-06-14T15:11:46;6.0;;;3.0;;
22675;SDS011;12521;43.310;21.876;2023-06-14T15:16:22;6.0;;;3.0;;
22675;SDS011;12521;43.310;21.876;2023-06-14T15:20:59;7.0;;;3.0;;
22675;SDS011;12521;43.310;21.876;2023-06-14T15:25:36;7.0;;;3.0;;
22675;SDS011;12521;43.310;21.876;2023-06-14T15:30:13;6.0;;;4.0;;
22675;SDS011;12521;43.310;21.876;2023-06-14T15:34:50;6.0;;;4.0;;
22675;SDS011;12521;43.310;21.876;2023-06-14T15:39:26;5.0;;;4.0;;
22675;SDS011;12521;43.310;21.876;2023-06-14T15:44:05;5.0;;;4.0;;
22675;SDS011;12521;43.310;21.876;2023-06-14T15:48:46;6.0;;;4.0;;
22675;SDS011;12521;43.310;21.876;2023-06-14T15:53:23;6.0;;;4.0;;
22675;SDS011;12521;43.310;21.876;2023-06-14T15:57:59;6.0;;;4.0;;
22675;SDS011;12521;43.310;21.876;2023-06-14T16:02:36;7.0;;;5.0;;
22675;SDS011;12521;43.310;21.876;2023-06-14T16:07:14;7.0;;;5.0;;
22675;SDS011;12521;43.310;21.876;2023-06-14T16:11:50;8.0;;;5.0;;
22675;SDS011;12521;43.310;21.876;2023-06-14T16:16:27;8.0;;;5.0;;
22675;SDS011;12521;43.310;21.876;2023-06-14T16:21:04;9.0;;;5.0;;
22675;SDS011;12521;43.310;21.876;2023-06-14T16:25:40;9.0;;;5.0;;
22675;SDS011;12521;43.310;21.876;2023-06-14T16:30:17;8.0;;;6.0;;
22675;SDS011;12521;43.310;21.876;2023-06-14T16:34:54;8.0;;;6.0;;
22675;SDS011;12521;43.310;21.876;2023-06-14T16:39:30;7.0;;;6.0;;
22675;SDS011;12521;43.310;21.876;2023-06-14T16:44:06;7.0;;;6.0;;
22675;SDS011;12521;43.310;21.876;2023-06-14T16:48:43;8.0;;;6.0;;
22675;SDS011;12521;43.310;21.876;2023-06-14T16:53:19;8.0;;;6.0;;
22675;SDS011;12521;43.310;21.876;2023-06-14T16:57:57;8.0;;;6.0;;
22675;SDS011;12521;43.310;21.876;2023-06-14T17:02:33;8.0;;;7.0;;
22675;SDS011;12521;43.310;21.876;2023-06-14T17:07:09;8.0;;;7.0;;
22675;SDS011;12521;43.310;21.876;2023-06-14T17:11:46;8.0;;;7.0;;
22675;SDS011;12521;43.310;21.876;2023-06-14T17:16:22;8.0;;;7.0;;
22675;SDS011;12521;43.310;21.876;2023-06-14T17:20:59;8.0;;;7.0;;
22675;SDS011;12521;43.310;21.876;2023-06-14T17:25:36;8.0;;;7.0;;
22675;SDS011;12521;43.310;21.876;2023-06-14T17:30:14;8.0;;;7.0;;
22675;SDS011;12521;43.310;21.876;2023-06-14T17:34:51;8.0;;;7.0;;
22675;SDS011;12521;43.310;21.876;2023-06-14T17:39:27;8.0;;;7.0;;
22675;SDS011;12521;43.310;21.876;2023-06-14T17:44:04;8.0;;;7.0;;
22675;SDS011;12521;43.310;21.876;2023-06-14T17:48:41;8.0;;;6.0;;
22675;SDS011;12521;43.310;21.876;2023-06-14T17:53:17;8.0;;;6.0;;
22675;SDS011;12521;43.310;21.876;2023-06-14T17:57:54;8.0;;;6.0;;
22675;SDS011;12521;43.310;21.876;2023-06-14T18:02:30;7.0;;;5.0;;
22675;SDS011;12521;43.310;21.876;2023-06-14T18:07:07;7.0;;;5.0;;
22675;SDS011;12521;43.310;21.876;2023-06-14T18:11:44;8.0;;;6.0;;
22675;SDS011;12521;43.310;21.876;2023-06-14T18:16:20;8.0;;;6.0;;
22675;SDS011;12521;43.310;21.876;2023-06-14T18:20:56;8.0;;;6.0;;
22675;SDS011;12521;43.310;21.876;2023-06-14T18:25:33;8.0;;;6.0;;
22675;SDS011;12521;43.310;21.876;2023-06-14T18:30:11;8.0;;;7.0;;
22675;SDS011;12521;43.310;21.876;2023-06-14T18:34:49;8.0;;;7.0;;
22675;SDS011;12521;43.310;21.876;2023-06-14T18:39:26;9.0;;;8.0;;
22675;SDS011;12521;43.310;21.876;2023-06-14T18:44:03;9.0;;;8.0;;
22675;SDS011;12521;43.310;21.876;2023-06-14T18:48:39;8.0;;;6.0;;
22675;SDS011;12521;43.310;21.876;2023-06-14T18:53:16;8.0;;;6.0;;
22675;SDS011;12521;43.310;21.876;2023-06-14T18:57:52;8.0;;;6.0;;
22675;SDS011;12521;43.310;21.876;2023-06-14T19:02:29;8.0;;;5.0;;
22675;SDS011;12521;43.310;21.876;2023-06-14T19:07:05;8.0;;;5.0;;
22675;SDS011;12521;43.310;21.876;2023-06-14T19:11:42;8.0;;;6.0;;
22675;SDS011;12521;43.310;21.876;2023-06-14T19:16:18;8.0;;;6.0;;
22675;SDS011;12521;43.310;21.876;2023-06-14T19:20:54;7.0;;;6.0;;
22675;SDS011;12521;43.310;21.876;2023-06-14T19:25:30;7.0;;;6.0;;
22675;SDS011;12521;43.310;21.876;2023-06-14T19:30:07;6.0;;;6.0;;
22675;SDS011;12521;43.310;21.876;2023-06-14T19:34:45;6.0;;;6.0;;
22675;SDS011;12521;43.310;21.876;2023-06-14T19:39:21;6.0;;;6.0;;
22675;SDS011;12521;43.310;21.876;2023-06-14T19:43:57;6.0;;;6.0;;
22675;SDS011;12521;43.310;21.876;2023-06-14T19:48:34;6.0;;;6.0;;
22675;SDS011;12521;43.310;21.876;2023-06-14T19:53:10;6.0;;;6.0;;
22675;SDS011;12521;43.310;21.876;2023-06-14T19:57:47;6.0;;;6.0;;
22675;SDS011;12521;43.310;21.876;2023-06-14T20:02:23;6.0;;;5.0;;
22675;SDS011;12521;43.310;21.876;2023-06-14T20:07:00;6.0;;;5.0;;
22675;SDS011;12521;43.310;21.876;2023-06-14T20:11:37;6.0;;;6.0;;
22675;SDS011;12521;43.310;21.876;2023-06-14T20:16:15;6.0;;;6.0;;
22675;SDS011;12521;43.310;21.876;2023-06-14T20:20:52;7.0;;;7.0;;
22675;SDS011;12521;43.310;21.876;2023-06-14T20:25:28;7.0;;;7.0;;
22675;SDS011;12521;43.310;21.876;2023-06-14T20:30:06;7.0;;;6.0;;
22675;SDS011;12521;43.310;21.876;2023-06-14T20:34:46;7.0;;;6.0;;
22675;SDS011;12521;43.310;21.876;2023-06-14T20:39:23;7.0;;;6.0;;
22675;SDS011;12521;43.310;21.876;2023-06-14T20:44:00;7.0;;;6.0;;
22675;SDS011;12521;43.310;21.876;2023-06-14T20:48:37;7.0;;;6.0;;
22675;SDS011;12521;43.310;21.876;2023-06-14T20:53:13;7.0;;;6.0;;
22675;SDS011;12521;43.310;21.876;2023-06-14T20:57:50;7.0;;;6.0;;
22675;SDS011;12521;43.310;21.876;2023-06-14T21:02:26;7.0;;;6.0;;
22675;SDS011;12521;43.310;21.876;2023-06-14T21:07:04;7.0;;;6.0;;
22675;SDS011;12521;43.310;21.876;2023-06-14T21:11:41;8.0;;;6.0;;
22675;SDS011;12521;43.310;21.876;2023-06-14T21:16:17;8.0;;;6.0;;
22675;SDS011;12521;43.310;21.876;2023-06-14T21:20:54;8.0;;;6.0;;
22675;SDS011;12521;43.310;21.876;2023-06-14T21:25:30;8.0;;;6.0;;
22675;SDS011;12521;43.310;21.876;2023-06-14T21:30:08;10.0;;;8.0;;
22675;SDS011;12521;43.310;21.876;2023-06-14T21:34:51;10.0;;;8.0;;
22675;SDS011;12521;43.310;21.876;2023-06-14T21:39:27;11.0;;;9.0;;
22675;SDS011;12521;43.310;21.876;2023-06-14T21:44:04;11.0;;;9.0;;
22675;SDS011;12521;43.310;21.876;2023-06-14T21:48:40;10.0;;;8.0;;
22675;SDS011;12521;43.310;21.876;2023-06-14T21:53:17;10.0;;;8.0;;
22675;SDS011;12521;43.310;21.876;2023-06-14T21:57:53;10.0;;;8.0;;
22675;SDS011;12521;43.310;21.876;2023-06-14T22:02:30;10.0;;;8.0;;
22675;SDS011;12521;43.310;21.876;2023-06-14T22:07:06;10.0;;;8.0;;
22675;SDS011;12521;43.310;21.876;2023-06-14T22:11:44;10.0;;;8.0;;
22675;SDS011;12521;43.310;21.876;2023-06-14T22:16:21;10.0;;;8.0;;
22675;SDS011;12521;43.310;21.876;2023-06-14T22:20:57;10.0;;;8.0;;
22675;SDS011;12521;43.310;21.876;2023-06-14T22:25:34;10.0;;;8.0;;
22675;SDS011;12521;43.310;21.876;2023-06-14T22:30:12;9.0;;;8.0;;
22675;SDS011;12521;43.310;21.876;2023-06-14T22:34:52;9.0;;;8.0;;
22675;SDS011;12521;43.310;21.876;2023-06-14T22:39:29;8.0;;;7.0;;
22675;SDS011;12521;43.310;21.876;2023-06-14T22:44:05;8.0;;;7.0;;
22675;SDS011;12521;43.310;21.876;2023-06-14T22:48:42;8.0;;;7.0;;
22675;SDS011;12521;43.310;21.876;2023-06-14T22:53:19;8.0;;;7.0;;
22675;SDS011;12521;43.310;21.876;2023-06-14T22:57:55;8.0;;;7.0;;
22675;SDS011;12521;43.310;21.876;2023-06-14T23:02:32;8.0;;;7.0;;
22675;SDS011;12521;43.310;21.876;2023-06-14T23:07:09;8.0;;;7.0;;
22675;SDS011;12521;43.310;21.876;2023-06-14T23:11:46;8.0;;;7.0;;
22675;SDS011;12521;43.310;21.876;2023-06-14T23:16:23;8.0;;;7.0;;
22675;SDS011;12521;43.310;21.876;2023-06-14T23:21:00;9.0;;;7.0;;
22675;SDS011;12521;43.310;21.876;2023-06-14T23:25:36;9.0;;;7.0;;
22675;SDS011;12521;43.310;21.876;2023-06-14T23:30:13;8.0;;;6.0;;
22675;SDS011;12521;43.310;21.876;2023-06-14T23:34:50;8.0;;;6.0;;
22675;SDS011;12521;43.310;21.876;2023-06-14T23:39:27;8.0;;;6.0;;
22675;SDS011;12521;43.310;21.876;2023-06-14T23:44:04;8.0;;;6.0;;
22675;SDS011;12521;43.310;21.876;2023-06-14T23:48:40;8.0;;;6.0;;
22675;SDS011;12521;43.310;21.876;2023-06-14T23:53:17;8.0;;;6.0;;
22675;SDS011;12521;43.310;21.876;2023-06-14T23:57:53;8.0;;;6.0;;
